sensor_id;sensor_type;location;lat;lon;timestamp;pressure;altitude;pressure_sealevel;temperature;humidity
32759;BME280;19125;52.360;9.974;2023-04-27T00:01:00;86981.09;;;-145.17;48.95
32759;BME280;19125;52.360;9.974;2023-04-27T00:03:25;86987.03;;;-145.17;48.77
32759;BME280;19125;52.360;9.974;2023-04-27T00:05:51;87020.78;;;-145.17;48.73
32759;BME280;19125;52.360;9.974;2023-04-27T00:08:16;86965.22;;;-145.17;48.97
32759;BME280;19125;52.360;9.974;2023-04-27T00:10:42;86975.13;;;-145.17;48.73
32759;BME280;19125;52.360;9.974;2023-04-27T00:13:07;86987.03;;;-145.17;48.68
32759;BME280;19125;52.360;9.974;2023-04-27T00:15:32;86991.00;;;-145.17;48.90
32759;BME280;19125;52.360;9.974;2023-04-27T00:17:58;86979.09;;;-145.17;48.87
32759;BME280;19125;52.360;9.974;2023-04-27T00:20:23;86937.44;;;-145.17;48.77
32759;BME280;19125;52.360;9.974;2023-04-27T00:22:49;86979.09;;;-145.17;48.79
32759;BME280;19125;52.360;9.974;2023-04-27T00:25:14;86963.22;;;-145.17;49.17
32759;BME280;19125;52.360;9.974;2023-04-27T00:27:40;86969.19;;;-145.17;49.13
32759;BME280;19125;52.360;9.974;2023-04-27T00:30:06;86985.06;;;-145.17;49.18
32759;BME280;19125;52.360;9.974;2023-04-27T00:32:32;86967.19;;;-145.17;49.37
32759;BME280;19125;52.360;9.974;2023-04-27T00:34:57;86993.00;;;-145.17;49.22
32759;BME280;19125;52.360;9.974;2023-04-27T00:37:22;87016.81;;;-145.17;49.29
32759;BME280;19125;52.360;9.974;2023-04-27T00:39:48;87024.75;;;-145.17;49.23
32759;BME280;19125;52.360;9.974;2023-04-27T00:42:13;87024.75;;;-145.17;49.39
32759;BME280;19125;52.360;9.974;2023-04-27T00:44:41;87016.81;;;-145.17;49.68
32759;BME280;19125;52.360;9.974;2023-04-27T00:47:07;87004.91;;;-145.17;49.96
32759;BME280;19125;52.360;9.974;2023-04-27T00:49:33;86996.97;;;-145.17;49.74
32759;BME280;19125;52.360;9.974;2023-04-27T00:51:59;86993.00;;;-145.17;49.72
32759;BME280;19125;52.360;9.974;2023-04-27T00:54:24;86987.03;;;-145.17;49.82
32759;BME280;19125;52.360;9.974;2023-04-27T00:56:50;86991.00;;;-145.17;49.63
32759;BME280;19125;52.360;9.974;2023-04-27T00:59:17;87040.63;;;-145.17;49.88
32759;BME280;19125;52.360;9.974;2023-04-27T01:01:43;86998.94;;;-145.17;49.95
32759;BME280;19125;52.360;9.974;2023-04-27T01:04:08;87022.78;;;-145.17;50.17
32759;BME280;19125;52.360;9.974;2023-04-27T01:06:34;87038.66;;;-145.17;50.04
32759;BME280;19125;52.360;9.974;2023-04-27T01:08:59;87020.78;;;-145.17;50.04
32759;BME280;19125;52.360;9.974;2023-04-27T01:11:24;87032.69;;;-145.17;49.81
32759;BME280;19125;52.360;9.974;2023-04-27T01:13:50;87026.75;;;-145.17;49.92
32759;BME280;19125;52.360;9.974;2023-04-27T01:16:16;87004.91;;;-145.17;49.95
32759;BME280;19125;52.360;9.974;2023-04-27T01:18:42;87026.75;;;-145.17;50.14
32759;BME280;19125;52.360;9.974;2023-04-27T01:21:08;86981.09;;;-145.17;50.18
32759;BME280;19125;52.360;9.974;2023-04-27T01:23:33;87032.69;;;-145.17;50.29
32759;BME280;19125;52.360;9.974;2023-04-27T01:25:59;87028.72;;;-145.17;50.39
32759;BME280;19125;52.360;9.974;2023-04-27T01:28:24;87048.56;;;-145.17;50.44
32759;BME280;19125;52.360;9.974;2023-04-27T01:30:50;87028.72;;;-145.17;50.61
32759;BME280;19125;52.360;9.974;2023-04-27T01:33:15;87040.63;;;-145.17;50.73
32759;BME280;19125;52.360;9.974;2023-04-27T01:35:41;87076.34;;;-145.17;50.78
32759;BME280;19125;52.360;9.974;2023-04-27T01:38:06;87058.50;;;-145.17;50.97
32759;BME280;19125;52.360;9.974;2023-04-27T01:40:31;87082.31;;;-145.17;50.84
32759;BME280;19125;52.360;9.974;2023-04-27T01:42:57;87074.38;;;-145.17;51.20
32759;BME280;19125;52.360;9.974;2023-04-27T01:45:22;87116.06;;;-145.17;51.39
32759;BME280;19125;52.360;9.974;2023-04-27T01:47:52;87108.13;;;-145.17;51.53
32759;BME280;19125;52.360;9.974;2023-04-27T01:50:18;87118.03;;;-145.17;51.60
32759;BME280;19125;52.360;9.974;2023-04-27T01:52:43;87125.97;;;-145.17;51.85
32759;BME280;19125;52.360;9.974;2023-04-27T01:55:09;87131.94;;;-145.17;52.38
32759;BME280;19125;52.360;9.974;2023-04-27T01:57:35;87131.94;;;-145.17;52.51
32759;BME280;19125;52.360;9.974;2023-04-27T02:00:00;87179.56;;;-145.17;52.39
32759;BME280;19125;52.360;9.974;2023-04-27T02:02:26;87137.88;;;-145.17;52.42
32759;BME280;19125;52.360;9.974;2023-04-27T02:04:51;87122.00;;;-145.17;52.69
32759;BME280;19125;52.360;9.974;2023-04-27T02:07:16;87153.78;;;-145.17;52.87
32759;BME280;19125;52.360;9.974;2023-04-27T02:09:42;87201.41;;;-145.17;52.95
32759;BME280;19125;52.360;9.974;2023-04-27T02:12:07;87151.78;;;-145.17;53.11
32759;BME280;19125;52.360;9.974;2023-04-27T02:14:32;87195.44;;;-145.17;53.25
32759;BME280;19125;52.360;9.974;2023-04-27T02:16:57;87163.69;;;-145.17;53.46
32759;BME280;19125;52.360;9.974;2023-04-27T02:19:23;87173.63;;;-145.17;53.54
32759;BME280;19125;52.360;9.974;2023-04-27T02:21:48;87211.31;;;-145.17;53.57
32759;BME280;19125;52.360;9.974;2023-04-27T02:24:14;87205.38;;;-145.17;53.53
32759;BME280;19125;52.360;9.974;2023-04-27T02:26:39;87231.19;;;-145.17;53.96
32759;BME280;19125;52.360;9.974;2023-04-27T02:29:04;87241.09;;;-145.17;54.36
32759;BME280;19125;52.360;9.974;2023-04-27T02:31:30;87253.00;;;-145.17;54.49
32759;BME280;19125;52.360;9.974;2023-04-27T02:33:55;87310.56;;;-145.17;54.75
32759;BME280;19125;52.360;9.974;2023-04-27T02:36:20;87280.81;;;-145.17;54.84
32759;BME280;19125;52.360;9.974;2023-04-27T02:38:46;87298.66;;;-145.17;54.93
32759;BME280;19125;52.360;9.974;2023-04-27T02:41:11;87334.41;;;-145.17;54.84
32759;BME280;19125;52.360;9.974;2023-04-27T02:43:37;87314.53;;;-145.17;54.97
32759;BME280;19125;52.360;9.974;2023-04-27T02:46:02;87294.69;;;-145.17;55.01
32759;BME280;19125;52.360;9.974;2023-04-27T02:48:29;87320.50;;;-145.17;55.14
32759;BME280;19125;52.360;9.974;2023-04-27T02:50:55;87362.19;;;-145.17;55.50
32759;BME280;19125;52.360;9.974;2023-04-27T02:53:21;87334.41;;;-145.17;55.44
32759;BME280;19125;52.360;9.974;2023-04-27T02:55:46;87336.38;;;-145.17;55.48
32759;BME280;19125;52.360;9.974;2023-04-27T02:58:12;87318.50;;;-145.17;55.44
32759;BME280;19125;52.360;9.974;2023-04-27T03:00:38;87354.25;;;-145.17;56.05
32759;BME280;19125;52.360;9.974;2023-04-27T03:03:05;87364.16;;;-145.17;55.99
32759;BME280;19125;52.360;9.974;2023-04-27T03:05:31;87411.81;;;-145.17;56.02
32759;BME280;19125;52.360;9.974;2023-04-27T03:07:57;87421.72;;;-145.17;56.27
32759;BME280;19125;52.360;9.974;2023-04-27T03:10:22;87389.97;;;-145.17;56.54
32759;BME280;19125;52.360;9.974;2023-04-27T03:12:48;87423.72;;;-145.17;56.41
32759;BME280;19125;52.360;9.974;2023-04-27T03:15:13;87453.50;;;-145.17;56.26
32759;BME280;19125;52.360;9.974;2023-04-27T03:17:38;87409.81;;;-145.17;56.49
32759;BME280;19125;52.360;9.974;2023-04-27T03:20:04;87459.44;;;-145.17;56.95
32759;BME280;19125;52.360;9.974;2023-04-27T03:22:33;87485.25;;;-145.17;56.71
32759;BME280;19125;52.360;9.974;2023-04-27T03:24:58;87455.47;;;-145.17;57.02
32759;BME280;19125;52.360;9.974;2023-04-27T03:27:24;87503.13;;;-145.17;57.16
32759;BME280;19125;52.360;9.974;2023-04-27T03:29:52;87463.41;;;-145.17;56.98
32759;BME280;19125;52.360;9.974;2023-04-27T03:32:18;87485.25;;;-145.17;57.47
32759;BME280;19125;52.360;9.974;2023-04-27T03:34:43;87497.16;;;-145.17;57.45
32759;BME280;19125;52.360;9.974;2023-04-27T03:37:08;87477.31;;;-145.17;57.12
32759;BME280;19125;52.360;9.974;2023-04-27T03:39:34;87509.06;;;-145.17;57.20
32759;BME280;19125;52.360;9.974;2023-04-27T03:41:59;87483.28;;;-145.17;57.43
32759;BME280;19125;52.360;9.974;2023-04-27T03:44:26;87507.09;;;-145.17;57.87
32759;BME280;19125;52.360;9.974;2023-04-27T03:46:51;87465.41;;;-145.17;57.45
32759;BME280;19125;52.360;9.974;2023-04-27T03:49:17;87519.00;;;-145.17;57.88
32759;BME280;19125;52.360;9.974;2023-04-27T03:51:42;87519.00;;;-145.17;57.29
32759;BME280;19125;52.360;9.974;2023-04-27T03:54:08;87534.88;;;-145.17;57.95
32759;BME280;19125;52.360;9.974;2023-04-27T03:56:34;87505.09;;;-145.17;57.87
32759;BME280;19125;52.360;9.974;2023-04-27T03:58:59;87513.03;;;-145.17;57.80
32759;BME280;19125;52.360;9.974;2023-04-27T04:01:25;87517.00;;;-145.17;57.55
32759;BME280;19125;52.360;9.974;2023-04-27T04:03:50;87497.16;;;-145.17;57.48
32759;BME280;19125;52.360;9.974;2023-04-27T04:06:16;87532.91;;;-145.17;57.83
32759;BME280;19125;52.360;9.974;2023-04-27T04:08:41;87503.13;;;-145.17;57.79
32759;BME280;19125;52.360;9.974;2023-04-27T04:11:06;87483.28;;;-145.17;57.86
32759;BME280;19125;52.360;9.974;2023-04-27T04:13:32;87554.72;;;-145.17;57.43
32759;BME280;19125;52.360;9.974;2023-04-27T04:16:05;87519.00;;;-145.17;57.81
32759;BME280;19125;52.360;9.974;2023-04-27T04:18:31;87491.22;;;-145.17;57.49
32759;BME280;19125;52.360;9.974;2023-04-27T04:20:57;87564.66;;;-145.17;57.77
32759;BME280;19125;52.360;9.974;2023-04-27T04:23:22;87530.91;;;-145.17;57.47
32759;BME280;19125;52.360;9.974;2023-04-27T04:25:48;87515.03;;;-145.17;57.69
32759;BME280;19125;52.360;9.974;2023-04-27T04:28:14;87517.00;;;-145.17;57.65
32759;BME280;19125;52.360;9.974;2023-04-27T04:30:39;87505.09;;;-145.17;57.16
32759;BME280;19125;52.360;9.974;2023-04-27T04:33:05;87473.34;;;-145.17;57.14
32759;BME280;19125;52.360;9.974;2023-04-27T04:35:30;87477.31;;;-145.17;56.93
32759;BME280;19125;52.360;9.974;2023-04-27T04:37:59;87449.53;;;-145.17;57.19
32759;BME280;19125;52.360;9.974;2023-04-27T04:40:24;87455.47;;;-145.17;56.76
32759;BME280;19125;52.360;9.974;2023-04-27T04:42:50;87445.56;;;-145.17;56.57
32759;BME280;19125;52.360;9.974;2023-04-27T04:45:16;87405.84;;;-145.17;56.45
32759;BME280;19125;52.360;9.974;2023-04-27T04:47:41;87376.06;;;-145.17;56.29
32759;BME280;19125;52.360;9.974;2023-04-27T04:50:07;87397.91;;;-145.17;56.39
32759;BME280;19125;52.360;9.974;2023-04-27T04:52:34;87397.91;;;-145.17;55.97
32759;BME280;19125;52.360;9.974;2023-04-27T04:54:59;87362.19;;;-145.17;56.12
32759;BME280;19125;52.360;9.974;2023-04-27T04:57:24;87368.13;;;-145.17;55.64
32759;BME280;19125;52.360;9.974;2023-04-27T04:59:50;87370.13;;;-145.17;55.83
32759;BME280;19125;52.360;9.974;2023-04-27T05:02:15;87354.25;;;-145.17;55.44
32759;BME280;19125;52.360;9.974;2023-04-27T05:04:40;87354.25;;;-145.17;55.86
32759;BME280;19125;52.360;9.974;2023-04-27T05:07:06;87338.38;;;-145.17;55.60
32759;BME280;19125;52.360;9.974;2023-04-27T05:09:31;87306.59;;;-145.17;55.60
32759;BME280;19125;52.360;9.974;2023-04-27T05:11:57;87322.47;;;-145.17;55.62
32759;BME280;19125;52.360;9.974;2023-04-27T05:14:22;87314.53;;;-145.17;55.29
32759;BME280;19125;52.360;9.974;2023-04-27T05:16:47;87286.75;;;-145.17;55.07
32759;BME280;19125;52.360;9.974;2023-04-27T05:19:13;87274.84;;;-145.17;55.11
32759;BME280;19125;52.360;9.974;2023-04-27T05:21:43;87253.00;;;-145.17;54.89
32759;BME280;19125;52.360;9.974;2023-04-27T05:24:08;87298.66;;;-145.17;54.63
32759;BME280;19125;52.360;9.974;2023-04-27T05:26:33;87221.25;;;-145.17;54.33
32759;BME280;19125;52.360;9.974;2023-04-27T05:28:59;87223.25;;;-145.17;54.17
32759;BME280;19125;52.360;9.974;2023-04-27T05:31:24;87195.44;;;-145.17;54.08
32759;BME280;19125;52.360;9.974;2023-04-27T05:33:50;87175.59;;;-145.17;52.95
32759;BME280;19125;52.360;9.974;2023-04-27T05:36:15;87157.75;;;-145.17;52.75
32759;BME280;19125;52.360;9.974;2023-04-27T05:38:40;87078.34;;;-145.17;52.30
32759;BME280;19125;52.360;9.974;2023-04-27T05:41:07;87118.03;;;-145.17;52.16
32759;BME280;19125;52.360;9.974;2023-04-27T05:43:32;87072.38;;;-145.17;51.65
32759;BME280;19125;52.360;9.974;2023-04-27T05:45:59;87080.31;;;-145.17;51.30
32759;BME280;19125;52.360;9.974;2023-04-27T05:48:25;87040.63;;;-145.17;51.15
32759;BME280;19125;52.360;9.974;2023-04-27T05:50:58;87024.75;;;-145.17;50.63
32759;BME280;19125;52.360;9.974;2023-04-27T05:53:24;87056.50;;;-145.17;50.77
32759;BME280;19125;52.360;9.974;2023-04-27T05:55:50;87030.72;;;-145.17;50.53
32759;BME280;19125;52.360;9.974;2023-04-27T05:58:15;87020.78;;;-145.17;50.20
32759;BME280;19125;52.360;9.974;2023-04-27T06:00:41;86993.00;;;-145.17;49.63
32759;BME280;19125;52.360;9.974;2023-04-27T06:03:06;86977.13;;;-145.17;49.54
32759;BME280;19125;52.360;9.974;2023-04-27T06:05:31;86993.00;;;-145.17;49.66
32759;BME280;19125;52.360;9.974;2023-04-27T06:07:58;86969.19;;;-145.17;49.30
32759;BME280;19125;52.360;9.974;2023-04-27T06:10:24;87048.56;;;-145.17;49.38
32759;BME280;19125;52.360;9.974;2023-04-27T06:12:50;86945.38;;;-145.17;48.92
32759;BME280;19125;52.360;9.974;2023-04-27T06:15:16;86937.44;;;-145.17;48.37
32759;BME280;19125;52.360;9.974;2023-04-27T06:17:41;86905.66;;;-145.17;48.28
32759;BME280;19125;52.360;9.974;2023-04-27T06:20:08;86901.69;;;-145.17;47.99
32759;BME280;19125;52.360;9.974;2023-04-27T06:22:37;86929.47;;;-145.17;47.73
32759;BME280;19125;52.360;9.974;2023-04-27T06:25:04;86941.38;;;-145.17;47.43
32759;BME280;19125;52.360;9.974;2023-04-27T06:27:32;86927.50;;;-145.17;47.47
32759;BME280;19125;52.360;9.974;2023-04-27T06:29:57;86909.63;;;-145.17;47.73
32759;BME280;19125;52.360;9.974;2023-04-27T06:32:23;86885.81;;;-145.17;47.29
32759;BME280;19125;52.360;9.974;2023-04-27T06:34:49;86913.59;;;-145.17;46.98
32759;BME280;19125;52.360;9.974;2023-04-27T06:37:14;86834.22;;;-145.17;46.80
32759;BME280;19125;52.360;9.974;2023-04-27T06:39:42;86840.16;;;-145.17;45.97
32759;BME280;19125;52.360;9.974;2023-04-27T06:42:08;86826.28;;;-145.17;46.26
32759;BME280;19125;52.360;9.974;2023-04-27T06:44:33;86850.09;;;-145.17;45.63
32759;BME280;19125;52.360;9.974;2023-04-27T06:46:58;86820.31;;;-145.17;45.50
32759;BME280;19125;52.360;9.974;2023-04-27T06:49:23;86834.22;;;-145.17;45.05
32759;BME280;19125;52.360;9.974;2023-04-27T06:51:49;86824.28;;;-145.17;44.69
32759;BME280;19125;52.360;9.974;2023-04-27T06:54:15;86782.63;;;-145.17;44.70
32759;BME280;19125;52.360;9.974;2023-04-27T06:56:41;86816.34;;;-145.17;44.77
32759;BME280;19125;52.360;9.974;2023-04-27T06:59:07;86725.06;;;-145.17;43.85
32759;BME280;19125;52.360;9.974;2023-04-27T07:01:32;86754.84;;;-145.17;43.48
32759;BME280;19125;52.360;9.974;2023-04-27T07:03:58;86764.75;;;-145.17;43.33
32759;BME280;19125;52.360;9.974;2023-04-27T07:06:23;86794.53;;;-145.17;43.47
32759;BME280;19125;52.360;9.974;2023-04-27T07:08:50;86774.69;;;-145.17;44.14
32759;BME280;19125;52.360;9.974;2023-04-27T07:11:15;86742.91;;;-145.17;43.39
32759;BME280;19125;52.360;9.974;2023-04-27T07:13:41;86717.13;;;-145.17;43.33
32759;BME280;19125;52.360;9.974;2023-04-27T07:16:06;86683.38;;;-145.17;42.57
32759;BME280;19125;52.360;9.974;2023-04-27T07:18:32;86651.63;;;-145.17;41.26
32759;BME280;19125;52.360;9.974;2023-04-27T07:20:57;86669.50;;;-145.17;40.67
32759;BME280;19125;52.360;9.974;2023-04-27T07:23:23;86651.63;;;-145.17;39.96
32759;BME280;19125;52.360;9.974;2023-04-27T07:25:48;86683.38;;;-145.17;40.16
32759;BME280;19125;52.360;9.974;2023-04-27T07:28:14;86659.56;;;-145.17;40.52
32759;BME280;19125;52.360;9.974;2023-04-27T07:30:40;86681.41;;;-145.17;39.95
32759;BME280;19125;52.360;9.974;2023-04-27T07:33:06;86643.69;;;-145.17;40.01
32759;BME280;19125;52.360;9.974;2023-04-27T07:35:32;86584.16;;;-145.17;40.12
32759;BME280;19125;52.360;9.974;2023-04-27T07:37:59;86578.19;;;-145.17;38.80
32759;BME280;19125;52.360;9.974;2023-04-27T07:40:27;86554.38;;;-145.17;38.56
32759;BME280;19125;52.360;9.974;2023-04-27T07:42:53;86550.41;;;-145.17;37.83
32759;BME280;19125;52.360;9.974;2023-04-27T07:45:19;86508.75;;;-145.17;37.36
32759;BME280;19125;52.360;9.974;2023-04-27T07:47:45;86526.59;;;-145.17;37.24
32759;BME280;19125;52.360;9.974;2023-04-27T07:50:11;86554.38;;;-145.17;37.29
32759;BME280;19125;52.360;9.974;2023-04-27T07:52:38;86588.13;;;-145.17;37.52
32759;BME280;19125;52.360;9.974;2023-04-27T07:55:04;86574.22;;;-145.17;37.29
32759;BME280;19125;52.360;9.974;2023-04-27T07:57:30;86607.97;;;-145.17;37.26
32759;BME280;19125;52.360;9.974;2023-04-27T07:59:56;86586.13;;;-145.17;36.71
32759;BME280;19125;52.360;9.974;2023-04-27T08:02:21;86643.69;;;-145.17;36.58
32759;BME280;19125;52.360;9.974;2023-04-27T08:04:48;86572.25;;;-145.17;36.45
32759;BME280;19125;52.360;9.974;2023-04-27T08:07:17;86540.50;;;-145.17;35.94
32759;BME280;19125;52.360;9.974;2023-04-27T08:09:42;86526.59;;;-145.17;35.50
32759;BME280;19125;52.360;9.974;2023-04-27T08:12:08;86532.56;;;-145.17;36.02
32759;BME280;19125;52.360;9.974;2023-04-27T08:14:34;86556.38;;;-145.17;35.98
32759;BME280;19125;52.360;9.974;2023-04-27T08:17:00;86532.56;;;-145.17;34.62
32759;BME280;19125;52.360;9.974;2023-04-27T08:19:25;86486.91;;;-145.17;33.38
32759;BME280;19125;52.360;9.974;2023-04-27T08:21:50;86540.50;;;-145.17;33.96
32759;BME280;19125;52.360;9.974;2023-04-27T08:24:16;86455.16;;;-145.17;34.04
32759;BME280;19125;52.360;9.974;2023-04-27T08:26:41;86439.28;;;-145.17;33.70
32759;BME280;19125;52.360;9.974;2023-04-27T08:29:07;86381.72;;;-145.17;33.34
32759;BME280;19125;52.360;9.974;2023-04-27T08:31:33;86389.66;;;-145.17;33.31
32759;BME280;19125;52.360;9.974;2023-04-27T08:33:58;86353.94;;;-145.17;33.31
32759;BME280;19125;52.360;9.974;2023-04-27T08:36:24;86328.16;;;-145.17;33.51
32759;BME280;19125;52.360;9.974;2023-04-27T08:38:50;86369.81;;;-145.17;32.54
32759;BME280;19125;52.360;9.974;2023-04-27T08:41:19;86357.91;;;-145.17;32.17
32759;BME280;19125;52.360;9.974;2023-04-27T08:43:46;86455.16;;;-145.17;32.18
32759;BME280;19125;52.360;9.974;2023-04-27T08:46:17;86433.31;;;-145.17;32.65
32759;BME280;19125;52.360;9.974;2023-04-27T08:48:42;86403.56;;;-145.17;32.80
32759;BME280;19125;52.360;9.974;2023-04-27T08:51:09;86429.34;;;-145.17;32.11
32759;BME280;19125;52.360;9.974;2023-04-27T08:53:36;86429.34;;;-145.17;32.64
32759;BME280;19125;52.360;9.974;2023-04-27T08:56:03;86391.66;;;-145.17;32.44
32759;BME280;19125;52.360;9.974;2023-04-27T08:58:38;86373.78;;;-145.17;32.32
32759;BME280;19125;52.360;9.974;2023-04-27T09:01:06;86361.88;;;-145.17;32.08
32759;BME280;19125;52.360;9.974;2023-04-27T09:03:32;86298.38;;;-145.17;31.80
32759;BME280;19125;52.360;9.974;2023-04-27T09:05:59;86276.56;;;-145.17;31.43
32759;BME280;19125;52.360;9.974;2023-04-27T09:08:25;86254.72;;;-145.17;31.32
32759;BME280;19125;52.360;9.974;2023-04-27T09:10:51;86344.03;;;-145.17;31.03
32759;BME280;19125;52.360;9.974;2023-04-27T09:13:17;86351.97;;;-145.17;31.56
32759;BME280;19125;52.360;9.974;2023-04-27T09:15:50;86385.69;;;-145.17;31.98
32759;BME280;19125;52.360;9.974;2023-04-27T09:18:18;86349.97;;;-145.17;32.16
32759;BME280;19125;52.360;9.974;2023-04-27T09:20:45;86351.97;;;-145.17;31.60
32759;BME280;19125;52.360;9.974;2023-04-27T09:23:24;86389.66;;;-145.17;31.52
32759;BME280;19125;52.360;9.974;2023-04-27T09:25:50;86359.91;;;-145.17;30.93
32759;BME280;19125;52.360;9.974;2023-04-27T09:28:16;86262.66;;;-145.17;30.06
32759;BME280;19125;52.360;9.974;2023-04-27T09:30:53;86266.63;;;-145.17;29.93
32759;BME280;19125;52.360;9.974;2023-04-27T09:33:36;86222.97;;;-145.17;29.82
32759;BME280;19125;52.360;9.974;2023-04-27T09:36:04;86193.22;;;-145.17;29.38
32759;BME280;19125;52.360;9.974;2023-04-27T09:38:30;86187.25;;;-145.17;29.58
32759;BME280;19125;52.360;9.974;2023-04-27T09:40:56;86213.06;;;-145.17;30.36
32759;BME280;19125;52.360;9.974;2023-04-27T09:43:22;86272.59;;;-145.17;30.56
32759;BME280;19125;52.360;9.974;2023-04-27T09:45:49;86389.66;;;-145.17;30.68
32759;BME280;19125;52.360;9.974;2023-04-27T09:48:15;86326.16;;;-145.17;31.07
32759;BME280;19125;52.360;9.974;2023-04-27T09:50:42;86338.06;;;-145.17;31.38
32759;BME280;19125;52.360;9.974;2023-04-27T09:53:12;86278.53;;;-145.17;31.03
32759;BME280;19125;52.360;9.974;2023-04-27T10:03:46;86191.22;;;-145.17;29.29
32759;BME280;19125;52.360;9.974;2023-04-27T10:09:02;86129.72;;;-145.17;27.01
32759;BME280;19125;52.360;9.974;2023-04-27T10:11:41;86133.69;;;-145.17;27.01
32759;BME280;19125;52.360;9.974;2023-04-27T10:14:15;86129.72;;;-145.17;26.50
32759;BME280;19125;52.360;9.974;2023-04-27T10:16:49;86062.25;;;-145.17;26.76
32759;BME280;19125;52.360;9.974;2023-04-27T10:19:15;86052.31;;;-145.17;26.75
32759;BME280;19125;52.360;9.974;2023-04-27T10:21:57;86040.41;;;-145.17;27.19
32759;BME280;19125;52.360;9.974;2023-04-27T10:24:36;86088.03;;;-145.17;27.46
32759;BME280;19125;52.360;9.974;2023-04-27T10:27:09;86090.03;;;-145.17;27.17
32759;BME280;19125;52.360;9.974;2023-04-27T10:29:44;86084.06;;;-145.17;27.83
32759;BME280;19125;52.360;9.974;2023-04-27T10:32:22;86119.78;;;-145.17;27.83
32759;BME280;19125;52.360;9.974;2023-04-27T10:35:01;86185.28;;;-145.17;27.24
32759;BME280;19125;52.360;9.974;2023-04-27T10:37:37;86131.69;;;-145.17;27.33
32759;BME280;19125;52.360;9.974;2023-04-27T10:40:07;86088.03;;;-145.17;26.37
32759;BME280;19125;52.360;9.974;2023-04-27T10:42:32;86062.25;;;-145.17;25.53
32759;BME280;19125;52.360;9.974;2023-04-27T10:44:58;86020.56;;;-145.17;25.59
32759;BME280;19125;52.360;9.974;2023-04-27T10:47:23;85972.94;;;-145.17;24.84
32759;BME280;19125;52.360;9.974;2023-04-27T10:49:59;85970.97;;;-145.17;24.77
32759;BME280;19125;52.360;9.974;2023-04-27T10:52:25;86034.47;;;-145.17;25.11
32759;BME280;19125;52.360;9.974;2023-04-27T10:54:50;86046.38;;;-145.17;25.45
32759;BME280;19125;52.360;9.974;2023-04-27T10:57:16;86095.97;;;-145.17;25.89
32759;BME280;19125;52.360;9.974;2023-04-27T10:59:51;86068.19;;;-145.17;26.30
32759;BME280;19125;52.360;9.974;2023-04-27T11:02:17;86090.03;;;-145.17;26.36
32759;BME280;19125;52.360;9.974;2023-04-27T11:04:43;86076.13;;;-145.17;26.01
32759;BME280;19125;52.360;9.974;2023-04-27T11:07:09;86086.06;;;-145.17;26.29
32759;BME280;19125;52.360;9.974;2023-04-27T11:09:35;86060.25;;;-145.17;26.20
32759;BME280;19125;52.360;9.974;2023-04-27T11:12:05;86062.25;;;-145.17;26.18
32759;BME280;19125;52.360;9.974;2023-04-27T11:14:30;86092.00;;;-145.17;26.04
32759;BME280;19125;52.360;9.974;2023-04-27T11:16:56;86036.44;;;-145.17;25.75
32759;BME280;19125;52.360;9.974;2023-04-27T11:19:21;86008.66;;;-145.17;25.12
32759;BME280;19125;52.360;9.974;2023-04-27T11:21:46;85957.06;;;-145.17;25.02
32759;BME280;19125;52.360;9.974;2023-04-27T11:24:12;85992.78;;;-145.17;25.42
32759;BME280;19125;52.360;9.974;2023-04-27T11:26:37;86032.47;;;-145.17;25.27
32759;BME280;19125;52.360;9.974;2023-04-27T11:29:05;86064.22;;;-145.17;25.54
32759;BME280;19125;52.360;9.974;2023-04-27T11:31:44;86004.69;;;-145.17;25.86
32759;BME280;19125;52.360;9.974;2023-04-27T11:34:17;86000.72;;;-145.17;26.14
32759;BME280;19125;52.360;9.974;2023-04-27T11:36:43;85933.25;;;-145.17;25.38
32759;BME280;19125;52.360;9.974;2023-04-27T11:39:15;85869.78;;;-145.17;25.33
32759;BME280;19125;52.360;9.974;2023-04-27T11:41:43;85810.25;;;-145.17;25.25
32759;BME280;19125;52.360;9.974;2023-04-27T11:44:11;85828.09;;;-145.17;24.93
32759;BME280;19125;52.360;9.974;2023-04-27T11:46:36;85792.38;;;-145.17;24.44
32759;BME280;19125;52.360;9.974;2023-04-27T11:49:05;85728.88;;;-145.17;24.29
32759;BME280;19125;52.360;9.974;2023-04-27T11:51:32;85738.81;;;-145.17;23.56
32759;BME280;19125;52.360;9.974;2023-04-27T11:54:04;85724.94;;;-145.17;23.33
32759;BME280;19125;52.360;9.974;2023-04-27T11:56:38;85734.84;;;-145.17;23.78
32759;BME280;19125;52.360;9.974;2023-04-27T11:59:05;85746.75;;;-145.17;23.39
32759;BME280;19125;52.360;9.974;2023-04-27T12:01:32;85774.53;;;-145.17;23.85
32759;BME280;19125;52.360;9.974;2023-04-27T12:03:58;85778.50;;;-145.17;23.47
32759;BME280;19125;52.360;9.974;2023-04-27T12:06:27;85883.66;;;-145.17;23.86
32759;BME280;19125;52.360;9.974;2023-04-27T12:08:56;85893.56;;;-145.17;23.73
32759;BME280;19125;52.360;9.974;2023-04-27T12:11:26;85949.13;;;-145.17;23.85
32759;BME280;19125;52.360;9.974;2023-04-27T12:13:54;85992.78;;;-145.17;23.55
32759;BME280;19125;52.360;9.974;2023-04-27T12:16:20;86048.34;;;-145.17;23.85
32759;BME280;19125;52.360;9.974;2023-04-27T12:18:48;86066.22;;;-145.17;24.19
32759;BME280;19125;52.360;9.974;2023-04-27T12:21:14;86099.94;;;-145.17;24.72
32759;BME280;19125;52.360;9.974;2023-04-27T12:23:40;86092.00;;;-145.17;24.86
32759;BME280;19125;52.360;9.974;2023-04-27T12:26:05;86064.22;;;-145.17;25.41
32759;BME280;19125;52.360;9.974;2023-04-27T12:28:31;86000.72;;;-145.17;24.91
32759;BME280;19125;52.360;9.974;2023-04-27T12:30:56;85976.91;;;-145.17;24.84
32759;BME280;19125;52.360;9.974;2023-04-27T12:33:22;85990.81;;;-145.17;24.46
32759;BME280;19125;52.360;9.974;2023-04-27T12:35:47;85951.13;;;-145.17;24.75
32759;BME280;19125;52.360;9.974;2023-04-27T12:38:12;85790.41;;;-145.17;24.33
32759;BME280;19125;52.360;9.974;2023-04-27T12:40:38;85810.25;;;-145.17;23.16
32759;BME280;19125;52.360;9.974;2023-04-27T12:43:03;85762.63;;;-145.17;22.70
32759;BME280;19125;52.360;9.974;2023-04-27T12:45:29;85794.38;;;-145.17;21.82
32759;BME280;19125;52.360;9.974;2023-04-27T12:47:55;85774.53;;;-145.17;21.77